Wednesday, January 16, 2019, 12:01 AM GMT
Back to Local

CWPE, Point Lepreau, N. B.

Location: , , Canada Lat: 45.067
Local Time: 12:01 AM GMT ( 0:01 GMT) Lon: -66.467
Time Zone: GMT Elev: 3 ft

Show me the last for .
Show Decoded

2019-01-15 23:00 METAR CWPE 152300Z AUTO 33005KT M06/M10 RMK AO1 SOG 01 1021 SLP167 T10581098 =
2019-01-15 22:00 METAR CWPE 152200Z AUTO 33004KT M05/M10 RMK AO1 SOG 01 3023 SLP163 T10491097 =
2019-01-15 21:00 METAR CWPE 152100Z AUTO 34002KT M04/M10 RMK AO1 SOG 01 3019 SLP155 T10411095 =
2019-01-15 20:00 METAR CWPE 152000Z AUTO 34005KT M03/M09 RMK AO1 SOG 01 3009 SLP146 T10301094 =
2019-01-15 19:00 METAR CWPE 151900Z AUTO 34008KT M03/M10 RMK AO1 SOG 01 5003 SLP140 T10261095 =
2019-01-15 18:00 METAR CWPE 151800Z AUTO 35006KT M03/M10 RMK AO1 SOG 01 6011 SLP136 T10271099 =
2019-01-15 17:00 METAR CWPE 151700Z AUTO 32007KT M04/M11 RMK AO1 SOG 01 8009 SLP137 T10411106 =
2019-01-15 16:00 METAR CWPE 151600Z AUTO 32007KT M05/M11 RMK AO1 SOG 01 0002 SLP143 T10521110 =
2019-01-15 15:00 METAR CWPE 151500Z AUTO 33009KT M06/M12 RMK AO1 SOG 01 1012 SLP147 T10641123 =
2019-01-15 14:00 METAR CWPE 151400Z AUTO 33009KT M08/M13 RMK AO1 SOG 02 3007 SLP146 T10751134 =
2019-01-15 13:00 METAR CWPE 151300Z AUTO 34005KT M10/M15 RMK AO1 SOG 01 3005 SLP141 T10961146 =
2019-01-15 12:00 METAR CWPE 151200Z AUTO 35009KT M11/M15 RMK AO1 SOG 02 8001 SLP135 T11101153 =
2019-01-15 11:00 METAR CWPE 151100Z AUTO 33005KT M12/M15 RMK AO1 SOG 02 3002 SLP139 T11201151 =
2019-01-15 10:00 METAR CWPE 151000Z AUTO 34001KT M13/M15 RMK AO1 SOG 01 6004 SLP136 T11301150 =
2019-01-15 09:00 METAR CWPE 150900Z AUTO 31004KT M13/M15 RMK AO1 SOG 02 7005 SLP136 T11291147 =
2019-01-15 08:00 METAR CWPE 150800Z AUTO 00000KT M14/M16 RMK AO1 SOG 02 6009 SLP137 T11361155 =
2019-01-15 07:00 METAR CWPE 150700Z AUTO 01001KT M13/M15 RMK AO1 SOG 02 6014 SLP140 T11311153 =
2019-01-15 06:00 METAR CWPE 150600Z AUTO 31002KT M13/M15 RMK AO1 SOG 02 6024 SLP141 T11311150 =
2019-01-15 05:00 METAR CWPE 150500Z AUTO 35003KT M12/M15 RMK AO1 SOG 01 8026 SLP146 T11211153 =
2019-01-15 04:00 METAR CWPE 150400Z AUTO 34004KT M11/M15 RMK AO1 SOG 02 8024 SLP154 T11141150 =
2019-01-15 03:00 METAR CWPE 150300Z AUTO 35007KT M11/M15 RMK AO1 SOG 02 6024 SLP165 T11081148 =
2019-01-15 02:00 METAR CWPE 150200Z AUTO 35006KT M11/M14 RMK AO1 SOG 02 7023 SLP172 T11071144 =
2019-01-15 01:00 METAR CWPE 150100Z AUTO 35006KT M10/M14 RMK AO1 SOG 02 8021 SLP178 T11021137 =

Support USWX by starting your Amazon purchase here.